sensor_id;sensor_type;location;lat;lon;timestamp;P1;durP1;ratioP1;P2;durP2;ratioP2
70920;SDS011;58572;48.110;19.838;2023-09-18T00:01:04;12.18;;;7.93;;
70920;SDS011;58572;48.110;19.838;2023-09-18T00:03:34;13.70;;;9.55;;
70920;SDS011;58572;48.110;19.838;2023-09-18T00:06:01;12.40;;;8.48;;
70920;SDS011;58572;48.110;19.838;2023-09-18T00:08:29;15.95;;;9.30;;
70920;SDS011;58572;48.110;19.838;2023-09-18T00:10:56;13.68;;;8.48;;
70920;SDS011;58572;48.110;19.838;2023-09-18T00:15:54;12.13;;;8.27;;
70920;SDS011;58572;48.110;19.838;2023-09-18T00:18:21;12.20;;;7.88;;
70920;SDS011;58572;48.110;19.838;2023-09-18T00:20:50;16.17;;;9.25;;
70920;SDS011;58572;48.110;19.838;2023-09-18T00:23:17;13.07;;;8.88;;
70920;SDS011;58572;48.110;19.838;2023-09-18T00:25:44;16.20;;;8.27;;
70920;SDS011;58572;48.110;19.838;2023-09-18T00:28:11;13.23;;;8.73;;
70920;SDS011;58572;48.110;19.838;2023-09-18T00:30:39;12.45;;;8.63;;
70920;SDS011;58572;48.110;19.838;2023-09-18T00:33:09;14.15;;;8.45;;
70920;SDS011;58572;48.110;19.838;2023-09-18T00:35:36;13.60;;;8.05;;
70920;SDS011;58572;48.110;19.838;2023-09-18T00:38:05;13.82;;;8.85;;
70920;SDS011;58572;48.110;19.838;2023-09-18T00:40:32;13.13;;;8.48;;
70920;SDS011;58572;48.110;19.838;2023-09-18T00:42:59;12.65;;;8.13;;
70920;SDS011;58572;48.110;19.838;2023-09-18T00:45:27;11.63;;;8.05;;
70920;SDS011;58572;48.110;19.838;2023-09-18T00:47:54;10.52;;;7.43;;
70920;SDS011;58572;48.110;19.838;2023-09-18T00:50:21;11.65;;;7.30;;
70920;SDS011;58572;48.110;19.838;2023-09-18T00:52:49;11.43;;;6.55;;
70920;SDS011;58572;48.110;19.838;2023-09-18T00:57:45;9.70;;;6.18;;
70920;SDS011;58572;48.110;19.838;2023-09-18T01:00:13;10.40;;;7.25;;
70920;SDS011;58572;48.110;19.838;2023-09-18T01:02:43;9.73;;;6.55;;
70920;SDS011;58572;48.110;19.838;2023-09-18T01:05:10;11.27;;;7.28;;
70920;SDS011;58572;48.110;19.838;2023-09-18T01:07:38;10.88;;;6.88;;
70920;SDS011;58572;48.110;19.838;2023-09-18T01:10:06;10.95;;;6.72;;
70920;SDS011;58572;48.110;19.838;2023-09-18T01:12:39;8.95;;;6.50;;
70920;SDS011;58572;48.110;19.838;2023-09-18T01:15:11;10.23;;;6.35;;
70920;SDS011;58572;48.110;19.838;2023-09-18T01:17:41;9.38;;;5.85;;
70920;SDS011;58572;48.110;19.838;2023-09-18T01:20:10;9.88;;;6.28;;
70920;SDS011;58572;48.110;19.838;2023-09-18T01:22:39;12.93;;;7.10;;
70920;SDS011;58572;48.110;19.838;2023-09-18T01:25:06;11.02;;;6.97;;
70920;SDS011;58572;48.110;19.838;2023-09-18T01:30:00;10.40;;;6.40;;
70920;SDS011;58572;48.110;19.838;2023-09-18T01:32:29;10.63;;;6.30;;
70920;SDS011;58572;48.110;19.838;2023-09-18T01:34:59;9.60;;;6.90;;
70920;SDS011;58572;48.110;19.838;2023-09-18T01:37:30;10.00;;;6.82;;
70920;SDS011;58572;48.110;19.838;2023-09-18T01:39:59;10.68;;;7.25;;
70920;SDS011;58572;48.110;19.838;2023-09-18T01:42:26;10.82;;;7.25;;
70920;SDS011;58572;48.110;19.838;2023-09-18T01:44:54;9.68;;;7.05;;
70920;SDS011;58572;48.110;19.838;2023-09-18T01:47:22;12.30;;;7.38;;
70920;SDS011;58572;48.110;19.838;2023-09-18T01:49:49;10.98;;;6.90;;
70920;SDS011;58572;48.110;19.838;2023-09-18T01:52:16;9.45;;;6.55;;
70920;SDS011;58572;48.110;19.838;2023-09-18T01:54:43;11.43;;;6.63;;
70920;SDS011;58572;48.110;19.838;2023-09-18T01:59:39;11.25;;;6.93;;
70920;SDS011;58572;48.110;19.838;2023-09-18T02:02:07;8.98;;;6.18;;
70920;SDS011;58572;48.110;19.838;2023-09-18T02:04:35;10.40;;;6.60;;
70920;SDS011;58572;48.110;19.838;2023-09-18T02:09:29;9.77;;;6.78;;
70920;SDS011;58572;48.110;19.838;2023-09-18T02:11:56;14.35;;;6.70;;
70920;SDS011;58572;48.110;19.838;2023-09-18T02:14:24;10.27;;;6.70;;
70920;SDS011;58572;48.110;19.838;2023-09-18T02:16:52;11.68;;;6.93;;
70920;SDS011;58572;48.110;19.838;2023-09-18T02:19:19;12.18;;;6.72;;
70920;SDS011;58572;48.110;19.838;2023-09-18T02:21:46;10.77;;;7.28;;
70920;SDS011;58572;48.110;19.838;2023-09-18T02:24:13;12.65;;;7.13;;
70920;SDS011;58572;48.110;19.838;2023-09-18T02:26:40;9.68;;;6.85;;
70920;SDS011;58572;48.110;19.838;2023-09-18T02:31:38;10.23;;;6.07;;
70920;SDS011;58572;48.110;19.838;2023-09-18T02:34:06;10.27;;;6.72;;
70920;SDS011;58572;48.110;19.838;2023-09-18T02:36:34;11.63;;;6.90;;
70920;SDS011;58572;48.110;19.838;2023-09-18T02:39:01;11.48;;;6.88;;
70920;SDS011;58572;48.110;19.838;2023-09-18T02:43:55;11.20;;;7.00;;
70920;SDS011;58572;48.110;19.838;2023-09-18T02:46:22;10.48;;;6.82;;
70920;SDS011;58572;48.110;19.838;2023-09-18T02:48:53;11.35;;;7.05;;
70920;SDS011;58572;48.110;19.838;2023-09-18T02:51:20;11.15;;;7.28;;
70920;SDS011;58572;48.110;19.838;2023-09-18T02:53:47;10.88;;;7.15;;
70920;SDS011;58572;48.110;19.838;2023-09-18T02:58:41;10.55;;;6.80;;
70920;SDS011;58572;48.110;19.838;2023-09-18T03:01:08;12.13;;;7.85;;
70920;SDS011;58572;48.110;19.838;2023-09-18T03:03:35;12.15;;;7.68;;
70920;SDS011;58572;48.110;19.838;2023-09-18T03:06:04;10.73;;;7.05;;
70920;SDS011;58572;48.110;19.838;2023-09-18T03:08:31;13.18;;;7.50;;
70920;SDS011;58572;48.110;19.838;2023-09-18T03:11:00;10.63;;;7.15;;
70920;SDS011;58572;48.110;19.838;2023-09-18T03:13:28;10.75;;;7.60;;
70920;SDS011;58572;48.110;19.838;2023-09-18T03:15:56;9.88;;;7.30;;
70920;SDS011;58572;48.110;19.838;2023-09-18T03:18:23;13.10;;;8.02;;
70920;SDS011;58572;48.110;19.838;2023-09-18T03:20:50;14.07;;;9.75;;
70920;SDS011;58572;48.110;19.838;2023-09-18T03:23:19;17.27;;;10.43;;
70920;SDS011;58572;48.110;19.838;2023-09-18T03:25:46;13.80;;;8.82;;
70920;SDS011;58572;48.110;19.838;2023-09-18T03:28:13;11.40;;;7.43;;
70920;SDS011;58572;48.110;19.838;2023-09-18T03:30:40;10.18;;;7.10;;
70920;SDS011;58572;48.110;19.838;2023-09-18T03:33:07;13.02;;;7.35;;
70920;SDS011;58572;48.110;19.838;2023-09-18T03:35:44;10.93;;;7.00;;
70920;SDS011;58572;48.110;19.838;2023-09-18T03:38:12;11.02;;;7.38;;
70920;SDS011;58572;48.110;19.838;2023-09-18T03:40:40;13.02;;;8.13;;
70920;SDS011;58572;48.110;19.838;2023-09-18T03:43:08;12.02;;;6.93;;
70920;SDS011;58572;48.110;19.838;2023-09-18T03:45:37;10.63;;;7.47;;
70920;SDS011;58572;48.110;19.838;2023-09-18T03:48:06;11.75;;;7.18;;
70920;SDS011;58572;48.110;19.838;2023-09-18T03:50:33;11.10;;;7.32;;
70920;SDS011;58572;48.110;19.838;2023-09-18T03:53:00;10.85;;;7.25;;
70920;SDS011;58572;48.110;19.838;2023-09-18T03:57:56;10.52;;;6.85;;
70920;SDS011;58572;48.110;19.838;2023-09-18T04:00:23;13.52;;;7.57;;
70920;SDS011;58572;48.110;19.838;2023-09-18T04:02:51;10.68;;;7.10;;
70920;SDS011;58572;48.110;19.838;2023-09-18T04:05:18;12.82;;;7.10;;
70920;SDS011;58572;48.110;19.838;2023-09-18T04:07:45;10.88;;;7.45;;
70920;SDS011;58572;48.110;19.838;2023-09-18T04:10:13;10.45;;;7.25;;
70920;SDS011;58572;48.110;19.838;2023-09-18T04:12:45;10.77;;;7.28;;
70920;SDS011;58572;48.110;19.838;2023-09-18T04:15:15;11.38;;;7.10;;
70920;SDS011;58572;48.110;19.838;2023-09-18T04:17:42;10.88;;;7.00;;
70920;SDS011;58572;48.110;19.838;2023-09-18T04:20:10;11.80;;;7.10;;
70920;SDS011;58572;48.110;19.838;2023-09-18T04:22:41;11.68;;;7.43;;
70920;SDS011;58572;48.110;19.838;2023-09-18T04:25:10;13.60;;;7.68;;
70920;SDS011;58572;48.110;19.838;2023-09-18T04:27:38;11.75;;;7.82;;
70920;SDS011;58572;48.110;19.838;2023-09-18T04:30:06;11.75;;;7.75;;
70920;SDS011;58572;48.110;19.838;2023-09-18T04:32:36;10.68;;;7.35;;
70920;SDS011;58572;48.110;19.838;2023-09-18T04:35:04;11.45;;;7.03;;
70920;SDS011;58572;48.110;19.838;2023-09-18T04:37:33;9.77;;;6.97;;
70920;SDS011;58572;48.110;19.838;2023-09-18T04:40:03;10.85;;;7.00;;
70920;SDS011;58572;48.110;19.838;2023-09-18T04:42:35;12.57;;;7.32;;
70920;SDS011;58572;48.110;19.838;2023-09-18T04:45:03;11.45;;;7.47;;
70920;SDS011;58572;48.110;19.838;2023-09-18T04:47:31;14.43;;;7.32;;
70920;SDS011;58572;48.110;19.838;2023-09-18T04:50:00;10.27;;;7.15;;
70920;SDS011;58572;48.110;19.838;2023-09-18T04:52:34;10.98;;;7.32;;
70920;SDS011;58572;48.110;19.838;2023-09-18T04:55:01;10.27;;;6.93;;
70920;SDS011;58572;48.110;19.838;2023-09-18T04:59:55;10.90;;;7.03;;
70920;SDS011;58572;48.110;19.838;2023-09-18T05:02:22;10.15;;;6.88;;
70920;SDS011;58572;48.110;19.838;2023-09-18T05:04:50;12.43;;;8.35;;
70920;SDS011;58572;48.110;19.838;2023-09-18T05:07:19;11.32;;;7.45;;
70920;SDS011;58572;48.110;19.838;2023-09-18T05:09:46;12.15;;;7.80;;
70920;SDS011;58572;48.110;19.838;2023-09-18T05:12:13;11.13;;;7.10;;
70920;SDS011;58572;48.110;19.838;2023-09-18T05:14:41;13.18;;;7.97;;
70920;SDS011;58572;48.110;19.838;2023-09-18T05:17:09;10.18;;;7.05;;
70920;SDS011;58572;48.110;19.838;2023-09-18T05:19:37;12.25;;;7.78;;
70920;SDS011;58572;48.110;19.838;2023-09-18T05:22:04;11.27;;;6.90;;
70920;SDS011;58572;48.110;19.838;2023-09-18T05:24:33;12.63;;;7.78;;
70920;SDS011;58572;48.110;19.838;2023-09-18T05:27:00;13.90;;;8.88;;
70920;SDS011;58572;48.110;19.838;2023-09-18T05:29:28;15.60;;;11.18;;
70920;SDS011;58572;48.110;19.838;2023-09-18T05:31:55;12.88;;;8.40;;
70920;SDS011;58572;48.110;19.838;2023-09-18T05:34:22;13.02;;;7.72;;
70920;SDS011;58572;48.110;19.838;2023-09-18T05:36:50;11.07;;;7.63;;
70920;SDS011;58572;48.110;19.838;2023-09-18T05:39:18;10.85;;;6.78;;
70920;SDS011;58572;48.110;19.838;2023-09-18T05:41:46;10.65;;;7.05;;
70920;SDS011;58572;48.110;19.838;2023-09-18T05:44:14;10.95;;;7.15;;
70920;SDS011;58572;48.110;19.838;2023-09-18T05:46:41;11.27;;;7.22;;
70920;SDS011;58572;48.110;19.838;2023-09-18T05:49:08;12.32;;;7.88;;
70920;SDS011;58572;48.110;19.838;2023-09-18T05:51:36;13.13;;;8.43;;
70920;SDS011;58572;48.110;19.838;2023-09-18T05:54:03;12.10;;;7.75;;
70920;SDS011;58572;48.110;19.838;2023-09-18T05:58:58;13.88;;;7.85;;
70920;SDS011;58572;48.110;19.838;2023-09-18T06:01:26;14.35;;;8.07;;
70920;SDS011;58572;48.110;19.838;2023-09-18T06:03:53;10.75;;;7.47;;
70920;SDS011;58572;48.110;19.838;2023-09-18T06:06:20;13.02;;;8.30;;
70920;SDS011;58572;48.110;19.838;2023-09-18T06:08:48;11.80;;;7.88;;
70920;SDS011;58572;48.110;19.838;2023-09-18T06:11:15;12.88;;;8.48;;
70920;SDS011;58572;48.110;19.838;2023-09-18T06:13:42;13.00;;;8.93;;
70920;SDS011;58572;48.110;19.838;2023-09-18T06:16:11;12.52;;;8.85;;
70920;SDS011;58572;48.110;19.838;2023-09-18T06:18:38;14.23;;;7.82;;
70920;SDS011;58572;48.110;19.838;2023-09-18T06:21:05;12.00;;;7.78;;
70920;SDS011;58572;48.110;19.838;2023-09-18T06:23:32;12.07;;;8.10;;
70920;SDS011;58572;48.110;19.838;2023-09-18T06:26:00;12.82;;;8.35;;
70920;SDS011;58572;48.110;19.838;2023-09-18T06:28:29;15.43;;;8.73;;
70920;SDS011;58572;48.110;19.838;2023-09-18T06:30:56;11.32;;;8.00;;
70920;SDS011;58572;48.110;19.838;2023-09-18T06:33:25;10.52;;;7.35;;
70920;SDS011;58572;48.110;19.838;2023-09-18T06:35:52;12.77;;;8.52;;
70920;SDS011;58572;48.110;19.838;2023-09-18T06:38:19;12.43;;;8.23;;
70920;SDS011;58572;48.110;19.838;2023-09-18T06:40:46;12.73;;;7.68;;
70920;SDS011;58572;48.110;19.838;2023-09-18T06:43:15;11.30;;;7.93;;
70920;SDS011;58572;48.110;19.838;2023-09-18T06:45:42;13.60;;;8.25;;
70920;SDS011;58572;48.110;19.838;2023-09-18T06:48:09;14.25;;;8.93;;
70920;SDS011;58572;48.110;19.838;2023-09-18T06:50:38;16.38;;;11.13;;
70920;SDS011;58572;48.110;19.838;2023-09-18T06:53:05;13.63;;;8.90;;
70920;SDS011;58572;48.110;19.838;2023-09-18T06:55:33;14.90;;;8.65;;
70920;SDS011;58572;48.110;19.838;2023-09-18T06:58:00;12.68;;;8.50;;
70920;SDS011;58572;48.110;19.838;2023-09-18T07:02:55;11.98;;;7.88;;
70920;SDS011;58572;48.110;19.838;2023-09-18T07:05:22;12.93;;;7.70;;
70920;SDS011;58572;48.110;19.838;2023-09-18T07:10:18;10.07;;;6.88;;
70920;SDS011;58572;48.110;19.838;2023-09-18T07:12:45;11.43;;;7.32;;
70920;SDS011;58572;48.110;19.838;2023-09-18T07:15:12;11.05;;;7.88;;
70920;SDS011;58572;48.110;19.838;2023-09-18T07:17:39;12.10;;;7.47;;
70920;SDS011;58572;48.110;19.838;2023-09-18T07:20:07;12.63;;;7.60;;
70920;SDS011;58572;48.110;19.838;2023-09-18T07:22:39;11.55;;;7.80;;
70920;SDS011;58572;48.110;19.838;2023-09-18T07:25:07;13.07;;;7.75;;
70920;SDS011;58572;48.110;19.838;2023-09-18T07:27:35;11.82;;;7.65;;
70920;SDS011;58572;48.110;19.838;2023-09-18T07:30:04;11.18;;;7.45;;
70920;SDS011;58572;48.110;19.838;2023-09-18T07:32:32;13.27;;;7.75;;
70920;SDS011;58572;48.110;19.838;2023-09-18T07:34:59;11.73;;;7.40;;
70920;SDS011;58572;48.110;19.838;2023-09-18T07:37:26;12.75;;;8.98;;
70920;SDS011;58572;48.110;19.838;2023-09-18T07:39:53;11.88;;;7.88;;
70920;SDS011;58572;48.110;19.838;2023-09-18T07:42:25;11.27;;;8.02;;
70920;SDS011;58572;48.110;19.838;2023-09-18T07:44:52;12.25;;;7.88;;
70920;SDS011;58572;48.110;19.838;2023-09-18T07:47:19;10.73;;;7.43;;
70920;SDS011;58572;48.110;19.838;2023-09-18T07:49:47;10.90;;;7.20;;
70920;SDS011;58572;48.110;19.838;2023-09-18T07:52:15;11.98;;;7.53;;
70920;SDS011;58572;48.110;19.838;2023-09-18T07:54:43;10.70;;;7.18;;
70920;SDS011;58572;48.110;19.838;2023-09-18T07:57:10;13.73;;;8.27;;
70920;SDS011;58572;48.110;19.838;2023-09-18T07:59:40;11.90;;;8.07;;
70920;SDS011;58572;48.110;19.838;2023-09-18T08:02:07;10.18;;;7.32;;
70920;SDS011;58572;48.110;19.838;2023-09-18T08:04:35;11.35;;;7.82;;
70920;SDS011;58572;48.110;19.838;2023-09-18T08:09:31;10.75;;;7.30;;
70920;SDS011;58572;48.110;19.838;2023-09-18T08:12:01;13.05;;;7.95;;
70920;SDS011;58572;48.110;19.838;2023-09-18T08:14:28;13.55;;;7.50;;
70920;SDS011;58572;48.110;19.838;2023-09-18T08:16:57;9.77;;;6.75;;
70920;SDS011;58572;48.110;19.838;2023-09-18T08:19:25;10.52;;;6.80;;
70920;SDS011;58572;48.110;19.838;2023-09-18T08:21:53;12.45;;;6.90;;
70920;SDS011;58572;48.110;19.838;2023-09-18T08:24:21;10.73;;;7.10;;
70920;SDS011;58572;48.110;19.838;2023-09-18T08:26:48;10.82;;;7.07;;
70920;SDS011;58572;48.110;19.838;2023-09-18T08:29:16;12.93;;;7.63;;
70920;SDS011;58572;48.110;19.838;2023-09-18T08:34:11;9.90;;;6.45;;
70920;SDS011;58572;48.110;19.838;2023-09-18T08:36:38;10.57;;;6.63;;
70920;SDS011;58572;48.110;19.838;2023-09-18T08:39:05;10.73;;;6.45;;
70920;SDS011;58572;48.110;19.838;2023-09-18T08:41:33;9.63;;;6.75;;
70920;SDS011;58572;48.110;19.838;2023-09-18T08:44:08;11.20;;;6.25;;
70920;SDS011;58572;48.110;19.838;2023-09-18T08:46:36;10.32;;;6.53;;
70920;SDS011;58572;48.110;19.838;2023-09-18T08:49:04;10.23;;;7.13;;
70920;SDS011;58572;48.110;19.838;2023-09-18T08:51:34;10.23;;;7.00;;
70920;SDS011;58572;48.110;19.838;2023-09-18T08:54:03;10.77;;;7.05;;
70920;SDS011;58572;48.110;19.838;2023-09-18T08:56:32;9.98;;;7.00;;
70920;SDS011;58572;48.110;19.838;2023-09-18T08:59:00;11.43;;;7.32;;
70920;SDS011;58572;48.110;19.838;2023-09-18T09:01:27;9.15;;;6.95;;
70920;SDS011;58572;48.110;19.838;2023-09-18T09:03:55;11.02;;;7.35;;
70920;SDS011;58572;48.110;19.838;2023-09-18T09:06:22;11.02;;;7.18;;
70920;SDS011;58572;48.110;19.838;2023-09-18T09:11:18;10.75;;;7.25;;
70920;SDS011;58572;48.110;19.838;2023-09-18T09:13:46;11.93;;;6.90;;
70920;SDS011;58572;48.110;19.838;2023-09-18T09:16:13;8.20;;;6.40;;
70920;SDS011;58572;48.110;19.838;2023-09-18T09:18:47;11.43;;;7.45;;
70920;SDS011;58572;48.110;19.838;2023-09-18T09:21:15;9.95;;;6.65;;
70920;SDS011;58572;48.110;19.838;2023-09-18T09:26:16;12.80;;;6.82;;
70920;SDS011;58572;48.110;19.838;2023-09-18T09:28:44;13.13;;;6.97;;
70920;SDS011;58572;48.110;19.838;2023-09-18T09:31:22;9.30;;;6.50;;
70920;SDS011;58572;48.110;19.838;2023-09-18T09:36:20;10.90;;;7.00;;
70920;SDS011;58572;48.110;19.838;2023-09-18T09:38:47;12.30;;;7.90;;
70920;SDS011;58572;48.110;19.838;2023-09-18T09:41:16;11.65;;;6.65;;
70920;SDS011;58572;48.110;19.838;2023-09-18T09:43:43;10.63;;;6.22;;
70920;SDS011;58572;48.110;19.838;2023-09-18T09:46:14;9.00;;;6.45;;
70920;SDS011;58572;48.110;19.838;2023-09-18T09:48:57;9.35;;;6.05;;
70920;SDS011;58572;48.110;19.838;2023-09-18T09:51:26;10.68;;;5.90;;
70920;SDS011;58572;48.110;19.838;2023-09-18T09:53:54;9.15;;;6.82;;
70920;SDS011;58572;48.110;19.838;2023-09-18T09:59:18;9.23;;;6.07;;
70920;SDS011;58572;48.110;19.838;2023-09-18T10:01:46;11.43;;;7.15;;
70920;SDS011;58572;48.110;19.838;2023-09-18T10:04:17;8.75;;;6.30;;
70920;SDS011;58572;48.110;19.838;2023-09-18T10:06:47;8.70;;;6.05;;
70920;SDS011;58572;48.110;19.838;2023-09-18T10:09:19;10.18;;;7.18;;
70920;SDS011;58572;48.110;19.838;2023-09-18T10:11:49;9.23;;;6.18;;
70920;SDS011;58572;48.110;19.838;2023-09-18T10:14:21;7.90;;;5.80;;
70920;SDS011;58572;48.110;19.838;2023-09-18T10:16:57;10.07;;;5.88;;
70920;SDS011;58572;48.110;19.838;2023-09-18T10:19:32;8.70;;;5.47;;
70920;SDS011;58572;48.110;19.838;2023-09-18T10:22:06;8.85;;;5.93;;
70920;SDS011;58572;48.110;19.838;2023-09-18T10:27:14;7.43;;;5.57;;
70920;SDS011;58572;48.110;19.838;2023-09-18T10:29:48;8.93;;;5.65;;
70920;SDS011;58572;48.110;19.838;2023-09-18T10:32:19;8.80;;;5.80;;
70920;SDS011;58572;48.110;19.838;2023-09-18T10:34:48;8.93;;;6.13;;
70920;SDS011;58572;48.110;19.838;2023-09-18T10:37:15;9.80;;;5.43;;
70920;SDS011;58572;48.110;19.838;2023-09-18T10:39:44;8.10;;;6.05;;
70920;SDS011;58572;48.110;19.838;2023-09-18T10:42:14;9.70;;;6.00;;
70920;SDS011;58572;48.110;19.838;2023-09-18T10:44:45;9.52;;;5.80;;
70920;SDS011;58572;48.110;19.838;2023-09-18T10:47:14;8.20;;;5.55;;
70920;SDS011;58572;48.110;19.838;2023-09-18T10:49:41;8.02;;;6.10;;
70920;SDS011;58572;48.110;19.838;2023-09-18T10:54:37;7.13;;;5.25;;
70920;SDS011;58572;48.110;19.838;2023-09-18T10:57:05;10.50;;;6.22;;
70920;SDS011;58572;48.110;19.838;2023-09-18T10:59:32;9.40;;;6.15;;
70920;SDS011;58572;48.110;19.838;2023-09-18T11:04:31;9.80;;;6.13;;
70920;SDS011;58572;48.110;19.838;2023-09-18T11:07:02;11.90;;;6.25;;
70920;SDS011;58572;48.110;19.838;2023-09-18T11:09:32;8.45;;;6.13;;
70920;SDS011;58572;48.110;19.838;2023-09-18T11:12:08;10.52;;;6.10;;
70920;SDS011;58572;48.110;19.838;2023-09-18T11:14:43;9.00;;;6.25;;
70920;SDS011;58572;48.110;19.838;2023-09-18T11:20:05;10.95;;;5.65;;
70920;SDS011;58572;48.110;19.838;2023-09-18T11:22:38;11.15;;;6.20;;
70920;SDS011;58572;48.110;19.838;2023-09-18T11:28:04;9.02;;;6.07;;
70920;SDS011;58572;48.110;19.838;2023-09-18T11:30:34;7.15;;;5.68;;
70920;SDS011;58572;48.110;19.838;2023-09-18T11:33:04;11.38;;;6.05;;
70920;SDS011;58572;48.110;19.838;2023-09-18T11:35:33;8.70;;;6.40;;
70920;SDS011;58572;48.110;19.838;2023-09-18T11:38:03;9.23;;;6.63;;
70920;SDS011;58572;48.110;19.838;2023-09-18T11:40:32;11.05;;;6.13;;
70920;SDS011;58572;48.110;19.838;2023-09-18T11:45:55;9.68;;;5.72;;
70920;SDS011;58572;48.110;19.838;2023-09-18T11:48:23;9.73;;;5.53;;
70920;SDS011;58572;48.110;19.838;2023-09-18T11:50:57;10.20;;;5.53;;
70920;SDS011;58572;48.110;19.838;2023-09-18T11:53:33;8.52;;;5.70;;
70920;SDS011;58572;48.110;19.838;2023-09-18T11:56:09;7.63;;;5.65;;
70920;SDS011;58572;48.110;19.838;2023-09-18T11:58:46;7.80;;;5.50;;
70920;SDS011;58572;48.110;19.838;2023-09-18T12:01:13;8.15;;;5.32;;
70920;SDS011;58572;48.110;19.838;2023-09-18T12:03:41;9.55;;;5.63;;
70920;SDS011;58572;48.110;19.838;2023-09-18T12:06:10;8.13;;;5.07;;
70920;SDS011;58572;48.110;19.838;2023-09-18T12:08:39;7.90;;;5.70;;
70920;SDS011;58572;48.110;19.838;2023-09-18T12:11:07;10.35;;;5.38;;
70920;SDS011;58572;48.110;19.838;2023-09-18T12:13:34;7.68;;;5.00;;
70920;SDS011;58572;48.110;19.838;2023-09-18T12:16:02;6.97;;;4.93;;
70920;SDS011;58572;48.110;19.838;2023-09-18T12:18:31;8.43;;;4.80;;
70920;SDS011;58572;48.110;19.838;2023-09-18T12:21:01;10.57;;;5.30;;
70920;SDS011;58572;48.110;19.838;2023-09-18T12:23:40;7.60;;;5.18;;
70920;SDS011;58572;48.110;19.838;2023-09-18T12:26:09;8.50;;;5.13;;
70920;SDS011;58572;48.110;19.838;2023-09-18T12:28:38;6.80;;;4.90;;
70920;SDS011;58572;48.110;19.838;2023-09-18T12:31:06;7.80;;;4.72;;
70920;SDS011;58572;48.110;19.838;2023-09-18T12:33:37;6.95;;;4.80;;
70920;SDS011;58572;48.110;19.838;2023-09-18T12:36:06;9.48;;;5.00;;
70920;SDS011;58572;48.110;19.838;2023-09-18T12:38:34;7.40;;;5.20;;
70920;SDS011;58572;48.110;19.838;2023-09-18T12:41:03;7.70;;;4.93;;
70920;SDS011;58572;48.110;19.838;2023-09-18T12:43:35;7.50;;;5.05;;
70920;SDS011;58572;48.110;19.838;2023-09-18T12:46:04;7.70;;;4.80;;
70920;SDS011;58572;48.110;19.838;2023-09-18T12:48:32;7.03;;;4.70;;
70920;SDS011;58572;48.110;19.838;2023-09-18T12:51:03;6.70;;;4.60;;
70920;SDS011;58572;48.110;19.838;2023-09-18T12:53:30;6.97;;;4.93;;
70920;SDS011;58572;48.110;19.838;2023-09-18T12:56:06;6.55;;;4.45;;
70920;SDS011;58572;48.110;19.838;2023-09-18T12:58:34;8.60;;;4.72;;
70920;SDS011;58572;48.110;19.838;2023-09-18T13:01:05;7.60;;;5.30;;
70920;SDS011;58572;48.110;19.838;2023-09-18T13:03:35;6.95;;;4.63;;
70920;SDS011;58572;48.110;19.838;2023-09-18T13:06:11;7.40;;;4.15;;
70920;SDS011;58572;48.110;19.838;2023-09-18T13:08:42;6.82;;;4.40;;
70920;SDS011;58572;48.110;19.838;2023-09-18T13:11:12;7.13;;;4.82;;
70920;SDS011;58572;48.110;19.838;2023-09-18T13:13:41;8.20;;;4.55;;
70920;SDS011;58572;48.110;19.838;2023-09-18T13:16:09;6.00;;;4.53;;
70920;SDS011;58572;48.110;19.838;2023-09-18T13:18:38;7.10;;;4.57;;
70920;SDS011;58572;48.110;19.838;2023-09-18T13:21:09;7.82;;;5.30;;
70920;SDS011;58572;48.110;19.838;2023-09-18T13:23:37;6.80;;;4.55;;
70920;SDS011;58572;48.110;19.838;2023-09-18T13:26:05;6.25;;;4.22;;
70920;SDS011;58572;48.110;19.838;2023-09-18T13:28:35;6.63;;;4.68;;
70920;SDS011;58572;48.110;19.838;2023-09-18T13:31:05;6.93;;;4.45;;
70920;SDS011;58572;48.110;19.838;2023-09-18T13:33:33;7.18;;;4.55;;
70920;SDS011;58572;48.110;19.838;2023-09-18T13:36:04;6.47;;;4.28;;
70920;SDS011;58572;48.110;19.838;2023-09-18T13:38:32;7.70;;;4.78;;
70920;SDS011;58572;48.110;19.838;2023-09-18T13:40:59;8.55;;;5.70;;
70920;SDS011;58572;48.110;19.838;2023-09-18T13:45:58;8.50;;;4.65;;
70920;SDS011;58572;48.110;19.838;2023-09-18T13:48:29;6.95;;;4.70;;
70920;SDS011;58572;48.110;19.838;2023-09-18T13:50:58;7.15;;;4.97;;
70920;SDS011;58572;48.110;19.838;2023-09-18T13:53:26;7.95;;;4.43;;
70920;SDS011;58572;48.110;19.838;2023-09-18T13:55:55;6.63;;;5.15;;
70920;SDS011;58572;48.110;19.838;2023-09-18T13:58:22;8.10;;;4.50;;
70920;SDS011;58572;48.110;19.838;2023-09-18T14:00:50;8.95;;;4.70;;
70920;SDS011;58572;48.110;19.838;2023-09-18T14:03:21;7.40;;;4.40;;
70920;SDS011;58572;48.110;19.838;2023-09-18T14:05:50;9.85;;;5.30;;
70920;SDS011;58572;48.110;19.838;2023-09-18T14:08:17;8.02;;;4.72;;
70920;SDS011;58572;48.110;19.838;2023-09-18T14:10:45;8.82;;;4.72;;
70920;SDS011;58572;48.110;19.838;2023-09-18T14:15:38;8.63;;;4.63;;
70920;SDS011;58572;48.110;19.838;2023-09-18T14:20:34;8.88;;;4.75;;
70920;SDS011;58572;48.110;19.838;2023-09-18T14:23:01;14.88;;;7.05;;
70920;SDS011;58572;48.110;19.838;2023-09-18T14:25:31;8.35;;;5.80;;
70920;SDS011;58572;48.110;19.838;2023-09-18T14:27:59;7.13;;;4.45;;
70920;SDS011;58572;48.110;19.838;2023-09-18T14:32:56;8.48;;;5.10;;
70920;SDS011;58572;48.110;19.838;2023-09-18T14:35:26;7.20;;;4.55;;
70920;SDS011;58572;48.110;19.838;2023-09-18T14:37:55;10.52;;;5.70;;
70920;SDS011;58572;48.110;19.838;2023-09-18T14:40:22;9.48;;;4.95;;
70920;SDS011;58572;48.110;19.838;2023-09-18T14:42:49;10.65;;;4.85;;
70920;SDS011;58572;48.110;19.838;2023-09-18T14:47:43;6.95;;;4.40;;
70920;SDS011;58572;48.110;19.838;2023-09-18T14:50:11;8.15;;;4.43;;
70920;SDS011;58572;48.110;19.838;2023-09-18T14:55:08;7.75;;;4.35;;
70920;SDS011;58572;48.110;19.838;2023-09-18T14:57:35;9.25;;;4.93;;
70920;SDS011;58572;48.110;19.838;2023-09-18T15:00:02;9.13;;;5.30;;
70920;SDS011;58572;48.110;19.838;2023-09-18T15:02:31;6.65;;;4.57;;
70920;SDS011;58572;48.110;19.838;2023-09-18T15:05:00;9.23;;;5.05;;
70920;SDS011;58572;48.110;19.838;2023-09-18T15:07:30;8.88;;;4.88;;
70920;SDS011;58572;48.110;19.838;2023-09-18T15:12:25;7.43;;;5.35;;
70920;SDS011;58572;48.110;19.838;2023-09-18T15:14:54;7.55;;;4.70;;
70920;SDS011;58572;48.110;19.838;2023-09-18T15:17:22;10.32;;;4.88;;
70920;SDS011;58572;48.110;19.838;2023-09-18T15:19:50;8.88;;;5.05;;
70920;SDS011;58572;48.110;19.838;2023-09-18T15:22:20;8.43;;;4.93;;
70920;SDS011;58572;48.110;19.838;2023-09-18T15:24:48;8.43;;;5.32;;
70920;SDS011;58572;48.110;19.838;2023-09-18T15:27:16;8.70;;;5.32;;
70920;SDS011;58572;48.110;19.838;2023-09-18T15:32:11;8.68;;;5.00;;
70920;SDS011;58572;48.110;19.838;2023-09-18T15:34:38;9.68;;;5.13;;
70920;SDS011;58572;48.110;19.838;2023-09-18T15:37:05;9.35;;;5.93;;
70920;SDS011;58572;48.110;19.838;2023-09-18T15:39:32;8.55;;;5.45;;
70920;SDS011;58572;48.110;19.838;2023-09-18T15:42:00;9.90;;;5.57;;
70920;SDS011;58572;48.110;19.838;2023-09-18T15:46:55;10.25;;;5.20;;
70920;SDS011;58572;48.110;19.838;2023-09-18T15:49:23;7.82;;;5.00;;
70920;SDS011;58572;48.110;19.838;2023-09-18T15:51:50;10.00;;;4.90;;
70920;SDS011;58572;48.110;19.838;2023-09-18T15:56:44;10.70;;;5.43;;
70920;SDS011;58572;48.110;19.838;2023-09-18T15:59:14;10.98;;;6.10;;
70920;SDS011;58572;48.110;19.838;2023-09-18T16:01:41;7.70;;;5.07;;